Terminal Aerodrome Forecast
Issued by NWS Charleston, WV

Current Version | Previous Version | Text Only | Print | Product List | Glossary Off
Versions: 1 2 3 4 5 6 7 8 9 10 11 12 13 14 15 16 17 18 19 20 21 22 23 24 25 26 27 28

000
FTUS41 KRLX 230200 AAA
TAFCRW
TAF AMD
KCRW 230236Z 2303/2324 VRB03KT P6SM SKC
     FM230800 20004KT 6SM BR SCT050
     FM231500 22007KT P6SM SCT045
     FM231700 22009KT P6SM VCTS SCT040CB
     FM232000 27007KT 5SM TSRA BR BKN040CB=

USA.gov is the U.S. government's official web portal to all federal, state and local government web resources and services.